createdAt,value
2022-09-15T00:00:34.181Z,85.72
2022-09-15T00:01:37.474Z,85.71
2022-09-15T00:02:40.443Z,86.37
2022-09-15T00:03:43.726Z,86.44
2022-09-15T00:04:46.708Z,87.35
2022-09-15T00:05:50.726Z,86.89
2022-09-15T00:06:53.914Z,86.94
2022-09-15T00:07:57.032Z,87.22
2022-09-15T00:09:00.205Z,87.31
2022-09-15T00:10:05.483Z,87.03
2022-09-15T00:11:18.669Z,87.17
2022-09-15T00:12:21.834Z,87.46
2022-09-15T00:13:26.113Z,88.87
2022-09-15T00:14:29.192Z,89.08
2022-09-15T00:15:32.426Z,88.27
2022-09-15T00:16:35.848Z,89.50
2022-09-15T00:17:38.947Z,87.54
2022-09-15T00:18:42.101Z,87.49
2022-09-15T00:19:45.308Z,89.25
2022-09-15T00:20:48.574Z,89.36
2022-09-15T00:21:51.764Z,89.66
2022-09-15T00:22:54.875Z,89.55
2022-09-15T00:23:59.495Z,90.28
2022-09-15T00:25:02.521Z,90.83
2022-09-15T00:26:11.144Z,92.45
2022-09-15T00:27:14.323Z,93.17
2022-09-15T00:28:19.720Z,93.16
2022-09-15T00:29:22.833Z,92.25
2022-09-15T00:30:25.939Z,91.55
2022-09-15T00:31:30.861Z,89.81
2022-09-15T00:32:38.192Z,88.91
2022-09-15T00:33:42.305Z,89.83
2022-09-15T00:34:45.513Z,90.42
2022-09-15T00:35:50.224Z,90.94
2022-09-15T00:36:56.272Z,92.21
2022-09-15T00:37:59.293Z,92.28
2022-09-15T00:39:02.332Z,92.99
2022-09-15T00:40:05.650Z,93.90
2022-09-15T00:41:11.864Z,94.52
2022-09-15T00:42:20.666Z,94.33
2022-09-15T00:43:53.695Z,93.91
2022-09-15T00:45:01.938Z,95.07
2022-09-15T00:46:10.348Z,94.22
2022-09-15T00:47:19.495Z,93.99
2022-09-15T00:48:27.258Z,94.50
2022-09-15T00:49:33.797Z,95.58
2022-09-15T00:50:42.252Z,96.19
2022-09-15T00:52:05.848Z,95.78
2022-09-15T00:53:11.484Z,96.28
2022-09-15T00:54:38.337Z,97.23
2022-09-15T00:55:45.778Z,97.57
2022-09-15T00:56:52.752Z,97.98
2022-09-15T00:58:07.069Z,98.18
2022-09-15T01:00:36.961Z,96.43
2022-09-15T01:01:43.350Z,96.42
2022-09-15T01:02:48.498Z,96.39
2022-09-15T01:03:51.656Z,96.13
2022-09-15T01:04:58.519Z,96.55
2022-09-15T01:06:10.543Z,97.21
2022-09-15T01:07:18.228Z,96.94
2022-09-15T01:08:41.386Z,96.64
2022-09-15T01:09:52.414Z,96.86
2022-09-15T01:10:55.371Z,97.90
2022-09-15T01:11:58.643Z,98.48
2022-09-15T01:13:04.616Z,97.49
2022-09-15T01:14:08.269Z,97.95
2022-09-15T01:15:11.743Z,96.74
2022-09-15T01:17:07.153Z,96.80
2022-09-15T01:18:23.449Z,96.25
2022-09-15T01:20:03.758Z,97.08
2022-09-15T01:21:26.851Z,97.31
2022-09-15T01:23:07.300Z,97.92
2022-09-15T01:24:48.850Z,98.62
2022-09-15T01:26:13.935Z,97.45
2022-09-15T01:28:00.528Z,96.67
2022-09-15T01:29:43.069Z,96.41
2022-09-15T01:31:04.741Z,95.87
2022-09-15T01:32:29.187Z,95.59
2022-09-15T01:33:52.292Z,95.54
2022-09-15T01:35:17.787Z,95.54
2022-09-15T01:36:28.266Z,96.22
2022-09-15T01:37:38.020Z,95.34
2022-09-15T01:39:02.337Z,94.85
2022-09-15T01:40:10.000Z,94.08
2022-09-15T01:41:52.911Z,94.48
2022-09-15T01:42:56.897Z,94.33
2022-09-15T01:44:10.760Z,93.75
2022-09-15T01:45:29.393Z,93.89
2022-09-15T01:46:37.749Z,94.04
2022-09-15T01:47:42.004Z,94.71
2022-09-15T01:48:47.195Z,95.09
2022-09-15T01:50:11.098Z,94.68
2022-09-15T01:51:15.740Z,94.55
2022-09-15T01:52:22.585Z,95.22
2022-09-15T01:53:26.893Z,96.15
2022-09-15T01:54:40.198Z,95.92
2022-09-15T01:56:01.206Z,96.13
2022-09-15T01:57:04.664Z,96.48
2022-09-15T01:58:08.546Z,96.44
2022-09-15T01:59:11.691Z,96.99
2022-09-15T02:00:15.292Z,96.50
2022-09-15T02:01:29.886Z,96.27
2022-09-15T02:02:43.148Z,95.71
2022-09-15T02:03:56.806Z,95.41
2022-09-15T02:05:11.535Z,95.50
2022-09-15T02:06:37.270Z,95.49
2022-09-15T02:08:05.470Z,95.21
2022-09-15T02:09:37.075Z,95.21
2022-09-15T02:10:51.765Z,94.82
2022-09-15T02:12:08.801Z,95.57
2022-09-15T02:13:18.991Z,95.71
2022-09-15T02:14:52.664Z,95.12
2022-09-15T02:16:00.210Z,94.39
2022-09-15T02:17:05.796Z,94.89
2022-09-15T02:18:10.780Z,94.32
2022-09-15T02:19:42.071Z,94.11
2022-09-15T02:20:59.982Z,94.97
2022-09-15T02:22:28.014Z,94.10
2022-09-15T02:23:39.921Z,93.92
2022-09-15T02:24:51.104Z,96.38
2022-09-15T02:26:06.209Z,96.11
2022-09-15T02:27:15.917Z,95.73
2022-09-15T02:28:26.950Z,95.38
2022-09-15T02:29:36.334Z,95.84
2022-09-15T02:30:42.185Z,97.14
2022-09-15T02:31:46.862Z,96.66
2022-09-15T02:32:58.951Z,97.27
2022-09-15T02:34:08.034Z,96.82
2022-09-15T02:35:12.030Z,96.65
2022-09-15T02:36:20.055Z,97.09
2022-09-15T02:37:24.458Z,97.27
2022-09-15T02:38:33.731Z,97.32
2022-09-15T02:39:40.441Z,98.11
2022-09-15T02:40:44.868Z,97.62
2022-09-15T02:41:49.264Z,98.19
2022-09-15T02:42:56.044Z,98.59
2022-09-15T02:43:58.957Z,98.36
2022-09-15T02:45:02.963Z,98.17
2022-09-15T02:46:10.490Z,98.03
2022-09-15T02:47:13.659Z,97.29
2022-09-15T02:48:16.801Z,97.00
2022-09-15T02:49:20.340Z,97.12
2022-09-15T02:50:28.496Z,96.68
2022-09-15T02:51:31.444Z,96.28
2022-09-15T02:52:38.471Z,96.24
2022-09-15T02:53:43.154Z,96.48
2022-09-15T02:54:46.395Z,96.25
2022-09-15T02:55:49.709Z,95.88
2022-09-15T02:56:52.665Z,95.46
2022-09-15T02:57:57.041Z,95.00
2022-09-15T02:59:00.075Z,94.88
2022-09-15T03:00:15.070Z,94.79
2022-09-15T03:01:18.504Z,94.98
2022-09-15T03:02:21.649Z,95.14
2022-09-15T03:03:24.926Z,95.38
2022-09-15T03:04:27.994Z,96.33
2022-09-15T03:05:31.313Z,97.46
2022-09-15T03:06:37.357Z,96.96
2022-09-15T03:07:41.020Z,95.79
2022-09-15T03:08:49.532Z,94.93
2022-09-15T03:09:52.249Z,94.91
2022-09-15T03:10:57.723Z,94.70
2022-09-15T03:12:00.801Z,94.74
2022-09-15T03:13:03.823Z,94.54
2022-09-15T03:14:07.221Z,94.07
2022-09-15T03:15:12.218Z,94.38
2022-09-15T03:16:17.446Z,94.56
2022-09-15T03:17:20.841Z,93.98
2022-09-15T03:18:23.709Z,93.67
2022-09-15T03:19:26.987Z,93.36
2022-09-15T03:20:30.527Z,93.67
2022-09-15T03:21:33.715Z,93.93
2022-09-15T03:22:40.583Z,93.58
2022-09-15T03:23:44.104Z,93.95
2022-09-15T03:24:47.036Z,93.48
2022-09-15T03:25:49.939Z,93.03
2022-09-15T03:26:53.637Z,93.27
2022-09-15T03:27:56.617Z,94.64
2022-09-15T03:28:59.929Z,94.54
2022-09-15T03:30:05.319Z,94.32
2022-09-15T03:31:09.850Z,93.78
2022-09-15T03:33:22.120Z,93.88
2022-09-15T03:34:25.309Z,93.97
2022-09-15T03:35:28.478Z,93.96
2022-09-15T03:36:31.511Z,93.63
2022-09-15T03:37:34.774Z,93.46
2022-09-15T03:38:37.992Z,93.34
2022-09-15T03:39:47.410Z,93.36
2022-09-15T03:41:01.840Z,93.27
2022-09-15T03:42:05.304Z,93.50
2022-09-15T03:43:08.075Z,93.25
2022-09-15T03:44:11.094Z,92.96
2022-09-15T03:45:14.619Z,92.82
2022-09-15T03:46:18.134Z,93.24
2022-09-15T03:47:21.199Z,93.29
2022-09-15T03:48:24.817Z,92.92
2022-09-15T03:49:27.764Z,92.71
2022-09-15T03:50:30.899Z,92.74
2022-09-15T03:51:33.918Z,92.94
2022-09-15T03:52:37.429Z,92.88
2022-09-15T03:53:42.345Z,93.58
2022-09-15T03:54:45.345Z,93.73
2022-09-15T03:55:49.731Z,93.58
2022-09-15T03:56:52.819Z,93.14
2022-09-15T03:57:56.261Z,93.18
2022-09-15T03:59:01.886Z,92.75
2022-09-15T04:00:08.442Z,92.75
2022-09-15T04:01:12.778Z,92.72
2022-09-15T04:02:16.069Z,92.47
2022-09-15T04:03:19.326Z,91.83
2022-09-15T04:04:22.329Z,91.65
2022-09-15T04:05:25.276Z,91.37
2022-09-15T04:06:28.688Z,91.78
2022-09-15T04:07:31.961Z,91.59
2022-09-15T04:08:35.093Z,91.42
2022-09-15T04:09:38.073Z,91.57
2022-09-15T04:10:41.479Z,91.15
2022-09-15T04:11:44.688Z,91.04
2022-09-15T04:12:48.482Z,90.01
2022-09-15T04:13:53.625Z,90.49
2022-09-15T04:14:56.736Z,90.45
2022-09-15T04:16:11.668Z,90.29
2022-09-15T04:17:15.727Z,90.95
2022-09-15T04:18:18.702Z,91.05
2022-09-15T04:19:21.777Z,91.85
2022-09-15T04:20:25.213Z,91.59
2022-09-15T04:21:28.510Z,91.42
2022-09-15T04:22:32.645Z,91.33
2022-09-15T04:23:35.822Z,91.78
2022-09-15T04:24:39.711Z,92.41
2022-09-15T04:25:43.081Z,92.97
2022-09-15T04:26:46.380Z,92.60
2022-09-15T04:27:49.176Z,92.23
2022-09-15T04:28:52.561Z,92.31
2022-09-15T04:29:55.428Z,92.06
2022-09-15T04:31:07.412Z,92.15
2022-09-15T04:32:14.413Z,92.15
2022-09-15T04:33:17.363Z,91.89
2022-09-15T04:34:20.534Z,92.88
2022-09-15T04:35:23.842Z,92.38
2022-09-15T04:36:28.731Z,92.82
2022-09-15T04:37:32.452Z,92.56
2022-09-15T04:38:36.016Z,92.35
2022-09-15T04:39:38.996Z,92.64
2022-09-15T04:40:41.803Z,93.03
2022-09-15T04:41:45.052Z,92.66
2022-09-15T04:42:52.413Z,92.39
2022-09-15T04:43:55.834Z,92.59
2022-09-15T04:44:58.634Z,91.70
2022-09-15T04:46:01.349Z,91.61
2022-09-15T04:47:04.787Z,92.25
2022-09-15T04:48:07.872Z,92.90
2022-09-15T04:49:11.146Z,93.32
2022-09-15T04:50:14.617Z,93.00
2022-09-15T04:51:21.628Z,93.19
2022-09-15T04:52:24.726Z,93.14
2022-09-15T04:53:28.026Z,92.81
2022-09-15T04:54:32.029Z,92.98
2022-09-15T04:55:35.723Z,93.52
2022-09-15T04:56:39.586Z,94.26
2022-09-15T04:57:43.170Z,93.98
2022-09-15T04:58:52.378Z,93.60
2022-09-15T04:59:55.088Z,94.01
2022-09-15T05:00:58.340Z,94.01
2022-09-15T05:02:01.494Z,93.52
2022-09-15T05:03:04.629Z,93.52
2022-09-15T05:04:08.347Z,93.07
2022-09-15T05:05:11.308Z,93.79
2022-09-15T05:06:16.702Z,94.43
2022-09-15T05:07:20.099Z,94.37
2022-09-15T05:08:22.930Z,94.61
2022-09-15T05:09:28.013Z,93.69
2022-09-15T05:10:33.437Z,94.00
2022-09-15T05:11:36.276Z,94.49
2022-09-15T05:12:39.297Z,94.76
2022-09-15T05:13:42.368Z,95.51
2022-09-15T05:14:45.231Z,95.21
2022-09-15T05:15:48.115Z,94.64
2022-09-15T05:16:51.036Z,94.35
2022-09-15T05:17:53.915Z,94.94
2022-09-15T05:19:00.917Z,95.98
2022-09-15T05:20:05.217Z,97.36
2022-09-15T05:21:10.090Z,95.83
2022-09-15T05:22:16.055Z,95.67
2022-09-15T05:23:18.894Z,95.57
2022-09-15T05:24:21.784Z,95.76
2022-09-15T05:25:25.190Z,95.91
2022-09-15T05:26:29.140Z,95.82
2022-09-15T05:27:33.929Z,95.76
2022-09-15T05:28:38.162Z,95.64
2022-09-15T05:29:41.079Z,95.85
2022-09-15T05:30:44.667Z,95.77
2022-09-15T05:31:48.048Z,96.92
2022-09-15T05:32:54.447Z,97.82
2022-09-15T05:33:57.792Z,97.89
2022-09-15T05:35:01.563Z,97.96
2022-09-15T05:36:05.914Z,98.41
2022-09-15T05:37:10.666Z,97.92
2022-09-15T05:38:13.437Z,98.31
2022-09-15T05:39:16.660Z,97.81
2022-09-15T05:40:22.161Z,97.24
2022-09-15T05:41:26.360Z,96.64
2022-09-15T05:42:30.680Z,97.05
2022-09-15T05:43:35.779Z,96.88
2022-09-15T05:44:38.675Z,97.61
2022-09-15T05:45:43.143Z,97.98
2022-09-15T05:46:46.059Z,98.53
2022-09-15T05:47:48.877Z,98.51
2022-09-15T05:48:54.525Z,96.55
2022-09-15T05:49:59.110Z,97.57
2022-09-15T05:51:03.254Z,97.31
2022-09-15T05:52:06.430Z,97.39
2022-09-15T05:53:09.713Z,96.71
2022-09-15T05:54:13.320Z,96.31
2022-09-15T05:55:16.307Z,96.41
2022-09-15T05:56:20.344Z,96.32
2022-09-15T05:57:24.556Z,95.91
2022-09-15T05:58:28.066Z,95.65
2022-09-15T05:59:30.747Z,95.56
2022-09-15T06:00:34.685Z,95.21
2022-09-15T06:01:41.741Z,95.48
2022-09-15T06:02:44.809Z,96.44
2022-09-15T06:03:48.305Z,95.56
2022-09-15T06:04:54.638Z,95.04
2022-09-15T06:06:05.242Z,94.86
2022-09-15T06:07:08.286Z,94.86
2022-09-15T06:08:12.030Z,94.95
2022-09-15T06:09:16.036Z,94.63
2022-09-15T06:10:19.021Z,94.55
2022-09-15T06:11:25.246Z,95.16
2022-09-15T06:12:28.424Z,94.55
2022-09-15T06:13:31.769Z,94.87
2022-09-15T06:14:35.026Z,94.44
2022-09-15T06:15:37.915Z,93.86
2022-09-15T06:16:41.042Z,92.97
2022-09-15T06:17:43.941Z,92.96
2022-09-15T06:18:48.623Z,92.11
2022-09-15T06:19:52.116Z,91.55
2022-09-15T06:20:55.220Z,91.83
2022-09-15T06:22:01.895Z,93.15
2022-09-15T06:23:04.865Z,92.69
2022-09-15T06:24:08.913Z,92.99
2022-09-15T06:25:13.472Z,93.56
2022-09-15T06:26:22.687Z,92.70
2022-09-15T06:27:26.250Z,93.11
2022-09-15T06:28:29.325Z,92.81
2022-09-15T06:29:32.668Z,92.87
2022-09-15T06:30:39.119Z,93.37
2022-09-15T06:31:42.044Z,93.27
2022-09-15T06:32:48.309Z,93.52
2022-09-15T06:34:11.323Z,93.12
2022-09-15T06:35:17.644Z,92.75
2022-09-15T06:36:23.118Z,92.91
2022-09-15T06:37:26.205Z,92.91
2022-09-15T06:38:29.972Z,92.17
2022-09-15T06:39:33.313Z,92.65
2022-09-15T06:40:36.405Z,92.79
2022-09-15T06:41:58.846Z,92.58
2022-09-15T06:43:02.574Z,92.22
2022-09-15T06:44:05.468Z,93.14
2022-09-15T06:45:08.811Z,91.96
2022-09-15T06:46:14.852Z,92.55
2022-09-15T06:47:18.230Z,92.61
2022-09-15T06:48:24.907Z,92.80
2022-09-15T06:49:32.069Z,91.92
2022-09-15T06:50:35.098Z,92.33
2022-09-15T06:51:42.298Z,93.29
2022-09-15T06:52:45.459Z,92.53
2022-09-15T06:53:49.299Z,92.80
2022-09-15T06:54:52.284Z,94.24
2022-09-15T06:55:55.255Z,92.89
2022-09-15T06:56:58.302Z,92.67
2022-09-15T06:58:00.979Z,91.81
2022-09-15T06:59:07.686Z,92.39
2022-09-15T07:00:11.324Z,93.76
2022-09-15T07:01:26.749Z,93.51
2022-09-15T07:02:29.923Z,93.56
2022-09-15T07:03:33.491Z,94.35
2022-09-15T07:04:37.205Z,93.39
2022-09-15T07:05:44.512Z,92.79
2022-09-15T07:06:48.112Z,94.28
2022-09-15T07:07:51.254Z,93.89
2022-09-15T07:08:54.225Z,92.36
2022-09-15T07:09:57.124Z,92.86
2022-09-15T07:11:00.506Z,93.91
2022-09-15T07:12:03.369Z,94.81
2022-09-15T07:13:06.786Z,94.84
2022-09-15T07:14:09.506Z,94.83
2022-09-15T07:15:12.676Z,93.81
2022-09-15T07:16:19.146Z,94.49
2022-09-15T07:17:22.267Z,93.63
2022-09-15T07:18:27.257Z,92.15
2022-09-15T07:19:30.663Z,92.33
2022-09-15T07:20:35.453Z,91.74
2022-09-15T07:21:38.497Z,90.05
2022-09-15T07:22:44.705Z,89.25
2022-09-15T07:23:49.113Z,89.48
2022-09-15T07:24:52.095Z,87.01
2022-09-15T07:26:30.539Z,85.95
2022-09-15T07:27:33.536Z,85.15
2022-09-15T07:28:38.234Z,85.08
2022-09-15T07:29:47.532Z,84.79
2022-09-15T07:30:51.514Z,83.48
2022-09-15T07:31:54.582Z,82.12
2022-09-15T07:32:57.494Z,81.77
2022-09-15T07:34:01.638Z,79.83
2022-09-15T07:35:04.761Z,80.66
2022-09-15T07:36:09.232Z,81.32
2022-09-15T07:37:12.342Z,81.16
2022-09-15T07:38:15.234Z,81.05
2022-09-15T07:39:18.175Z,79.76
2022-09-15T07:40:22.169Z,80.69
2022-09-15T07:41:27.928Z,81.04
2022-09-15T07:42:35.413Z,79.41
2022-09-15T07:43:38.581Z,79.38
2022-09-15T07:44:42.054Z,80.65
2022-09-15T07:45:45.106Z,79.67
2022-09-15T07:46:48.086Z,79.60
2022-09-15T07:47:51.749Z,78.77
2022-09-15T07:48:56.695Z,78.31
2022-09-15T07:49:59.582Z,76.40
2022-09-15T07:51:02.548Z,77.36
2022-09-15T07:52:08.568Z,76.31
2022-09-15T07:53:11.814Z,75.25
2022-09-15T07:54:19.378Z,76.03
2022-09-15T07:55:24.951Z,77.47
2022-09-15T07:56:27.930Z,77.17
2022-09-15T07:57:31.213Z,75.08
2022-09-15T07:58:34.656Z,73.80
2022-09-15T07:59:41.107Z,74.20
2022-09-15T08:00:45.309Z,73.00
2022-09-15T08:01:48.249Z,72.68
2022-09-15T08:02:51.123Z,71.39
2022-09-15T08:03:54.253Z,69.72
2022-09-15T08:04:58.180Z,68.20
2022-09-15T08:06:02.663Z,67.44
2022-09-15T08:07:05.630Z,67.46
2022-09-15T08:08:08.911Z,68.77
2022-09-15T08:09:17.683Z,69.97
2022-09-15T08:10:26.590Z,69.03
2022-09-15T08:11:30.167Z,69.99
2022-09-15T08:12:33.009Z,69.14
2022-09-15T08:13:36.292Z,68.39
2022-09-15T08:14:39.468Z,68.40
2022-09-15T08:15:42.523Z,67.72
2022-09-15T08:16:45.724Z,67.63
2022-09-15T08:17:48.603Z,68.26
2022-09-15T08:18:55.898Z,66.10
2022-09-15T08:20:02.597Z,65.92
2022-09-15T08:21:07.367Z,64.75
2022-09-15T08:22:10.173Z,63.10
2022-09-15T08:23:13.219Z,64.88
2022-09-15T08:24:16.945Z,65.62
2022-09-15T08:25:20.013Z,64.92
2022-09-15T08:26:23.481Z,65.20
2022-09-15T08:27:26.507Z,65.66
2022-09-15T08:28:29.576Z,65.64
2022-09-15T08:29:32.969Z,65.20
2022-09-15T08:30:35.981Z,64.47
2022-09-15T08:31:39.732Z,63.35
2022-09-15T08:32:42.996Z,62.99
2022-09-15T08:33:51.905Z,63.59
2022-09-15T08:34:55.003Z,62.47
2022-09-15T08:36:03.992Z,61.95
2022-09-15T08:37:06.872Z,60.12
2022-09-15T08:38:09.871Z,58.44
2022-09-15T08:39:12.854Z,58.71
2022-09-15T08:40:27.870Z,59.16
2022-09-15T08:41:43.235Z,59.60
2022-09-15T08:42:48.483Z,56.26
2022-09-15T08:44:16.231Z,56.10
2022-09-15T08:45:27.969Z,56.79
2022-09-15T08:46:40.247Z,56.24
2022-09-15T08:47:49.178Z,53.93
2022-09-15T08:49:05.015Z,54.57
2022-09-15T08:50:42.110Z,53.49
2022-09-15T08:51:51.549Z,53.76
2022-09-15T08:53:14.943Z,52.99
2022-09-15T08:54:25.626Z,52.53
2022-09-15T08:55:41.775Z,53.02
2022-09-15T08:56:45.191Z,51.09
2022-09-15T08:57:48.430Z,51.45
2022-09-15T08:58:51.859Z,50.57
2022-09-15T08:59:55.019Z,49.30
2022-09-15T09:01:22.675Z,48.86
2022-09-15T09:02:49.953Z,49.16
2022-09-15T09:04:04.458Z,47.63
2022-09-15T09:05:10.719Z,47.80
2022-09-15T09:06:26.229Z,48.01
2022-09-15T09:07:47.678Z,47.31
2022-09-15T09:09:00.399Z,47.88
2022-09-15T09:10:34.901Z,46.40
2022-09-15T09:12:08.650Z,47.08
2022-09-15T09:13:43.513Z,47.24
2022-09-15T09:15:19.873Z,45.66
2022-09-15T09:16:43.972Z,45.84
2022-09-15T09:18:14.666Z,44.83
2022-09-15T09:19:46.750Z,45.30
2022-09-15T09:20:58.925Z,46.97
2022-09-15T09:22:12.896Z,47.15
2022-09-15T09:23:20.735Z,48.20
2022-09-15T09:24:40.981Z,50.32
2022-09-15T09:25:45.239Z,49.13
2022-09-15T09:26:54.642Z,48.86
2022-09-15T09:27:58.831Z,49.52
2022-09-15T09:29:12.110Z,49.89
2022-09-15T09:30:18.923Z,50.70
2022-09-15T09:31:23.496Z,49.98
2022-09-15T09:32:35.512Z,49.85
2022-09-15T09:34:03.071Z,49.94
2022-09-15T09:35:18.937Z,49.08
2022-09-15T09:36:22.183Z,48.62
2022-09-15T09:37:25.710Z,49.24
2022-09-15T09:38:37.081Z,48.99
2022-09-15T09:39:40.432Z,49.45
2022-09-15T09:40:43.503Z,49.31
2022-09-15T09:41:47.274Z,49.35
2022-09-15T09:42:50.396Z,49.81
2022-09-15T09:43:59.758Z,51.13
2022-09-15T09:45:05.271Z,51.24
2022-09-15T09:46:18.186Z,50.13
2022-09-15T09:47:26.848Z,49.74
2022-09-15T09:48:30.773Z,50.57
2022-09-15T09:49:47.859Z,50.77
2022-09-15T09:50:51.571Z,50.92
2022-09-15T09:52:02.317Z,51.22
2022-09-15T09:53:31.255Z,50.61
2022-09-15T09:54:35.659Z,49.65
2022-09-15T09:55:41.428Z,50.13
2022-09-15T09:56:45.555Z,49.78
2022-09-15T09:57:48.860Z,50.29
2022-09-15T09:58:52.435Z,50.89
2022-09-15T09:59:57.059Z,50.29
2022-09-15T10:01:10.627Z,49.44
2022-09-15T10:02:28.334Z,50.91
2022-09-15T10:03:33.059Z,49.79
2022-09-15T10:04:36.129Z,50.71
2022-09-15T10:05:39.268Z,50.46
2022-09-15T10:06:44.659Z,49.83
2022-09-15T10:07:47.727Z,49.59
2022-09-15T10:09:09.110Z,49.66
2022-09-15T10:10:24.634Z,49.61
2022-09-15T10:11:45.775Z,50.34
2022-09-15T10:12:49.924Z,50.49
2022-09-15T10:13:55.832Z,50.34
2022-09-15T10:15:02.629Z,50.30
2022-09-15T10:16:07.136Z,52.64
2022-09-15T10:17:16.892Z,51.38
2022-09-15T10:18:31.289Z,51.88
2022-09-15T10:19:44.742Z,52.14
2022-09-15T10:20:51.417Z,49.64
2022-09-15T10:21:54.668Z,49.74
2022-09-15T10:23:34.338Z,50.40
2022-09-15T10:24:40.233Z,50.27
2022-09-15T10:25:59.034Z,49.85
2022-09-15T10:27:34.459Z,50.15
2022-09-15T10:28:38.886Z,49.00
2022-09-15T10:29:42.546Z,48.62
2022-09-15T10:31:32.126Z,48.91
2022-09-15T10:32:35.091Z,49.27
2022-09-15T10:33:39.596Z,49.35
2022-09-15T10:34:44.465Z,49.39
2022-09-15T10:35:50.843Z,48.85
2022-09-15T10:37:09.194Z,48.98
2022-09-15T10:38:14.215Z,48.84
2022-09-15T10:39:31.680Z,49.23
2022-09-15T10:40:46.748Z,49.03
2022-09-15T10:42:31.378Z,47.80
2022-09-15T10:43:52.833Z,48.18
2022-09-15T10:45:31.906Z,49.32
2022-09-15T10:46:49.260Z,49.46
2022-09-15T10:47:55.213Z,49.39
2022-09-15T10:49:04.510Z,50.39
2022-09-15T10:50:31.192Z,49.94
2022-09-15T10:51:55.454Z,49.64
2022-09-15T10:53:06.245Z,49.19
2022-09-15T10:54:24.077Z,48.94
2022-09-15T10:55:52.698Z,49.67
2022-09-15T10:57:11.980Z,49.52
2022-09-15T10:58:22.756Z,49.52
2022-09-15T10:59:57.660Z,49.26
2022-09-15T11:01:16.733Z,49.70
2022-09-15T11:02:41.946Z,49.74
2022-09-15T11:04:12.609Z,49.48
2022-09-15T11:05:42.734Z,50.96
2022-09-15T11:07:03.684Z,50.15
2022-09-15T11:08:31.354Z,50.04
2022-09-15T11:09:42.371Z,50.15
2022-09-15T11:11:16.694Z,50.38
2022-09-15T11:12:34.834Z,50.44
2022-09-15T11:13:50.510Z,50.84
2022-09-15T11:15:03.975Z,51.07
2022-09-15T11:16:31.171Z,51.92
2022-09-15T11:17:34.353Z,52.59
2022-09-15T11:19:16.096Z,53.39
2022-09-15T11:20:39.471Z,52.57
2022-09-15T11:21:55.637Z,53.68
2022-09-15T11:23:40.074Z,54.08
2022-09-15T11:24:56.012Z,53.53
2022-09-15T11:26:17.389Z,53.79
2022-09-15T11:27:24.234Z,56.13
2022-09-15T11:28:38.985Z,56.07
2022-09-15T11:29:48.229Z,56.42
2022-09-15T11:31:01.263Z,57.74
2022-09-15T11:32:10.108Z,58.98
2022-09-15T11:33:25.554Z,60.83
2022-09-15T11:34:34.645Z,61.73
2022-09-15T11:35:46.377Z,63.51
2022-09-15T11:37:01.342Z,63.63
2022-09-15T11:38:38.299Z,64.71
2022-09-15T11:40:09.323Z,65.20
2022-09-15T11:41:31.308Z,66.23
2022-09-15T11:42:58.182Z,65.92
2022-09-15T11:44:19.769Z,66.07
2022-09-15T11:45:32.930Z,66.23
2022-09-15T11:46:58.971Z,65.87
2022-09-15T11:48:14.890Z,65.95
2022-09-15T11:49:26.358Z,65.56
2022-09-15T11:50:41.764Z,64.36
2022-09-15T11:51:57.240Z,63.76
2022-09-15T11:53:27.289Z,63.25
2022-09-15T11:54:40.386Z,63.00
2022-09-15T11:56:16.191Z,63.78
2022-09-15T11:57:25.618Z,62.33
2022-09-15T11:59:07.503Z,62.29
2022-09-15T12:00:13.109Z,62.59
2022-09-15T12:01:34.795Z,63.00
2022-09-15T12:02:49.783Z,63.30
2022-09-15T12:04:03.302Z,63.78
2022-09-15T12:05:19.524Z,63.82
2022-09-15T12:06:45.892Z,64.05
2022-09-15T12:08:05.470Z,64.65
2022-09-15T12:09:13.935Z,63.90
2022-09-15T12:10:36.945Z,64.03
2022-09-15T12:11:46.585Z,64.42
2022-09-15T12:12:51.741Z,64.64
2022-09-15T12:13:56.083Z,65.46
2022-09-15T12:14:59.245Z,67.37
2022-09-15T12:16:04.005Z,67.84
2022-09-15T12:17:09.950Z,68.73
2022-09-15T12:18:44.959Z,68.91
2022-09-15T12:20:02.886Z,68.82
2022-09-15T12:21:08.749Z,70.84
2022-09-15T12:22:21.420Z,70.64
2022-09-15T12:23:34.770Z,71.85
2022-09-15T12:25:01.284Z,72.77
2022-09-15T12:27:30.892Z,74.23
2022-09-15T12:29:13.527Z,74.42
2022-09-15T12:30:39.569Z,74.95
2022-09-15T12:31:43.007Z,75.86
2022-09-15T12:32:46.167Z,76.10
2022-09-15T12:34:03.791Z,77.74
2022-09-15T12:35:15.848Z,77.51
2022-09-15T12:36:38.524Z,79.16
2022-09-15T12:37:53.104Z,82.58
2022-09-15T12:38:56.751Z,83.34
2022-09-15T12:39:59.837Z,85.57
2022-09-15T12:41:03.278Z,84.85
2022-09-15T12:42:08.863Z,85.17
2022-09-15T12:43:12.898Z,84.62
2022-09-15T12:44:27.863Z,86.00
2022-09-15T12:45:38.702Z,85.15
2022-09-15T12:46:50.066Z,85.15
2022-09-15T12:47:58.329Z,86.65
2022-09-15T12:49:03.677Z,89.14
2022-09-15T12:50:21.502Z,88.63
2022-09-15T12:51:29.025Z,90.19
2022-09-15T12:52:47.084Z,89.31
2022-09-15T12:53:54.559Z,89.73
2022-09-15T12:55:02.713Z,91.36
2022-09-15T12:57:39.824Z,85.52
2022-09-15T12:58:48.077Z,83.93
2022-09-15T13:00:17.016Z,79.88
2022-09-15T13:01:26.161Z,81.13
2022-09-15T13:02:45.349Z,80.69
2022-09-15T13:03:55.447Z,77.46
2022-09-15T13:04:58.497Z,78.47
2022-09-15T13:06:21.622Z,81.41
2022-09-15T13:07:36.122Z,82.52
2022-09-15T13:08:52.739Z,83.11
2022-09-15T13:10:17.220Z,85.11
2022-09-15T13:11:29.881Z,84.64
2022-09-15T13:12:41.503Z,89.48
2022-09-15T13:14:08.460Z,87.68
2022-09-15T13:15:16.272Z,86.84
2022-09-15T13:16:38.077Z,86.59
2022-09-15T13:17:45.463Z,86.39
2022-09-15T13:18:54.524Z,90.13
2022-09-15T13:20:02.296Z,91.23
2022-09-15T13:21:14.210Z,91.02
2022-09-15T13:22:30.355Z,91.11
2022-09-15T13:23:40.027Z,90.95
2022-09-15T13:25:15.782Z,92.50
2022-09-15T13:26:25.711Z,92.66
2022-09-15T13:27:55.384Z,91.88
2022-09-15T13:28:59.584Z,92.25
2022-09-15T13:30:08.777Z,92.16
2022-09-15T13:31:27.070Z,91.97
2022-09-15T13:32:44.533Z,91.73
2022-09-15T13:35:26.666Z,91.29
2022-09-15T13:38:34.533Z,92.34
2022-09-15T13:39:59.921Z,93.39
2022-09-15T13:41:24.578Z,94.21
2022-09-15T13:42:49.842Z,94.46
2022-09-15T13:44:16.939Z,97.51
2022-09-15T13:45:48.438Z,96.90
2022-09-15T13:46:57.959Z,98.21
2022-09-15T13:48:39.943Z,98.92
2022-09-15T13:50:04.333Z,98.05
2022-09-15T13:51:19.699Z,97.44
2022-09-15T13:53:48.462Z,99.50
2022-09-15T13:55:21.765Z,98.67
2022-09-15T13:56:32.253Z,98.57
2022-09-15T13:59:11.897Z,100.00
2022-09-15T14:00:23.225Z,100.00
2022-09-15T14:01:30.206Z,99.78
2022-09-15T14:02:33.139Z,99.53
2022-09-15T14:03:43.056Z,100.00
2022-09-15T14:04:52.300Z,100.00
2022-09-15T14:05:56.650Z,99.94
2022-09-15T14:07:01.738Z,100.00
2022-09-15T14:08:13.917Z,100.00
2022-09-15T14:09:20.812Z,100.00
2022-09-15T14:10:27.395Z,100.00
2022-09-15T14:11:33.906Z,100.00
2022-09-15T14:12:39.757Z,100.00
2022-09-15T14:13:48.159Z,100.00
2022-09-15T14:14:54.894Z,100.00
2022-09-15T14:15:58.949Z,100.00
2022-09-15T14:17:01.942Z,100.00
2022-09-15T14:18:05.849Z,100.00
2022-09-15T14:19:42.316Z,100.00
2022-09-15T14:20:45.119Z,100.00
2022-09-15T14:21:53.794Z,100.00
2022-09-15T14:23:00.421Z,100.00
2022-09-15T14:24:07.286Z,100.00
2022-09-15T14:25:17.099Z,100.00
2022-09-15T14:26:23.945Z,100.00
2022-09-15T14:27:30.185Z,99.88
2022-09-15T14:28:36.958Z,100.00
2022-09-15T14:29:41.898Z,100.00
2022-09-15T14:30:48.174Z,100.00
2022-09-15T14:31:51.115Z,100.00
2022-09-15T14:33:00.492Z,100.00
2022-09-15T14:34:08.011Z,100.00
2022-09-15T14:35:19.835Z,99.43
2022-09-15T14:36:27.847Z,100.00
2022-09-15T14:37:36.948Z,98.88
2022-09-15T14:38:40.060Z,99.11
2022-09-15T14:39:56.762Z,99.08
2022-09-15T14:41:03.953Z,99.47
2022-09-15T14:42:21.475Z,99.64
2022-09-15T14:43:36.472Z,99.18
2022-09-15T14:46:14.024Z,98.32
2022-09-15T14:47:22.078Z,97.05
2022-09-15T14:48:28.313Z,95.89
2022-09-15T14:49:31.283Z,97.09
2022-09-15T14:50:34.772Z,96.81
2022-09-15T14:51:38.920Z,98.14
2022-09-15T14:53:16.571Z,98.97
2022-09-15T14:54:30.046Z,98.92
2022-09-15T14:56:11.921Z,100.00
2022-09-15T14:57:18.041Z,100.00
2022-09-15T14:58:27.867Z,100.00
2022-09-15T14:59:45.028Z,100.00
2022-09-15T15:01:20.397Z,100.00
2022-09-15T15:02:31.560Z,100.00
2022-09-15T15:03:56.328Z,100.00
2022-09-15T15:05:15.395Z,100.00
2022-09-15T15:06:30.762Z,100.00
2022-09-15T15:07:37.847Z,100.00
2022-09-15T15:09:08.184Z,100.00